Time;durP1;ratioP1;P1;durP2;ratioP2;P2;SDS_P1;SDS_P2;PMS_P1;PMS_P2;Temp;Humidity;BMP_temperature;BMP_pressure;BME280_temperature;BME280_humidity;BME280_pressure;Samples;Min_cycle;Max_cycle;Signal;HPM_P1;HPM_P2
2022/11/28 00:02:05;;;;;;;20.13;12.80;;;;;;;6.63;100.00;101247.22;5071512;28;20047;-66
2022/11/28 00:04:30;;;;;;;31.90;13.40;;;;;;;6.66;100.00;101267.03;5076370;28;20039;-66
2022/11/28 00:06:55;;;;;;;47.03;16.88;;;;;;;6.73;99.43;101258.94;5076265;28;20028;-65
2022/11/28 00:09:21;;;;;;;48.60;15.77;;;;;;;6.76;99.53;101270.28;5076006;28;20025;-69
2022/11/28 00:11:47;;;;;;;41.42;14.02;;;;;;;6.84;98.94;101268.25;5076579;28;20017;-69
2022/11/28 00:14:15;;;;;;;26.17;12.73;;;;;;;6.57;98.36;101206.63;5076542;28;20058;-65
2022/11/28 00:16:40;;;;;;;18.08;11.98;;;;;;;6.67;98.02;101244.03;5058596;28;20423;-67
2022/11/28 00:19:07;;;;;;;18.38;10.15;;;;;;;6.67;97.89;101244.03;5076195;28;20028;-71
2022/11/28 00:21:33;;;;;;;16.35;10.82;;;;;;;6.55;98.49;101243.25;5076297;28;20486;-67
2022/11/28 00:24:00;;;;;;;17.95;10.68;;;;;;;6.59;98.98;101253.81;5075950;28;20544;-67
2022/11/28 00:26:35;;;;;;;17.08;10.93;;;;;;;6.58;98.74;101264.84;5066610;28;20024;-66
2022/11/28 00:29:01;;;;;;;19.48;11.00;;;;;;;6.51;99.07;101254.97;5062812;28;20025;-67
2022/11/28 00:31:30;;;;;;;18.52;11.90;;;;;;;6.50;98.15;101253.19;5076401;28;20035;-67
2022/11/28 00:33:55;;;;;;;18.15;11.90;;;;;;;6.35;98.72;101242.81;5076435;28;20028;-69
2022/11/28 00:36:22;;;;;;;20.23;12.85;;;;;;;6.34;99.20;101245.28;5075570;28;20032;-68
2022/11/28 00:38:48;;;;;;;20.35;13.05;;;;;;;6.35;98.72;101244.50;5076439;28;20029;-65
2022/11/28 00:41:21;;;;;;;20.20;13.15;;;;;;;6.39;98.56;101252.50;5075995;28;20402;-69
2022/11/28 00:43:48;;;;;;;18.27;12.27;;;;;;;6.36;98.53;101244.59;5075958;28;20032;-70
2022/11/28 00:46:15;;;;;;;22.20;12.63;;;;;;;6.34;98.25;101225.63;5076044;28;20031;-65
2022/11/28 00:48:42;;;;;;;21.65;13.07;;;;;;;6.39;98.37;101241.34;5076084;28;20570;-68
2022/11/28 00:51:16;;;;;;;20.70;13.20;;;;;;;6.38;98.45;101231.84;5075678;28;20446;-72
2022/11/28 00:53:43;;;;;;;24.15;12.75;;;;;;;6.34;99.17;101228.19;5066755;28;20409;-69
2022/11/28 00:56:12;;;;;;;23.27;13.20;;;;;;;6.29;99.28;101221.88;5092364;28;20051;-69
2022/11/28 00:58:38;;;;;;;20.20;13.07;;;;;;;6.23;99.10;101224.03;5078643;28;20039;-69
2022/11/28 01:01:14;;;;;;;23.83;12.50;;;;;;;6.19;98.45;101209.25;5076061;28;20036;-66
2022/11/28 01:03:40;;;;;;;20.80;12.98;;;;;;;5.90;98.57;101172.28;5071988;28;20036;-69
2022/11/28 01:06:06;;;;;;;23.25;13.73;;;;;;;5.92;99.35;101173.25;5076181;28;20479;-70
2022/11/28 01:08:32;;;;;;;23.83;13.73;;;;;;;6.11;99.70;101209.63;5076296;28;20367;-69
2022/11/28 01:10:57;;;;;;;19.98;12.80;;;;;;;6.00;99.30;101192.63;5075983;28;20032;-68
2022/11/28 01:13:23;;;;;;;18.42;13.48;;;;;;;6.18;98.35;101226.31;5075051;28;20028;-68
2022/11/28 01:15:48;;;;;;;20.95;12.60;;;;;;;6.18;98.91;101218.63;5072247;28;20436;-69
2022/11/28 01:18:13;;;;;;;20.50;13.40;;;;;;;6.20;98.65;101218.72;5072390;28;20079;-65
2022/11/28 01:20:39;;;;;;;19.35;12.70;;;;;;;6.23;98.30;101226.59;5072548;28;20032;-71
2022/11/28 01:23:04;;;;;;;17.75;11.95;;;;;;;6.22;98.22;101229.94;5072628;28;20025;-72
2022/11/28 01:25:30;;;;;;;20.00;12.43;;;;;;;6.27;99.10;101219.22;5054636;28;20024;-69
2022/11/28 01:27:56;;;;;;;20.05;12.95;;;;;;;6.30;98.79;101219.41;5072681;28;20028;-67
2022/11/28 01:30:21;;;;;;;19.92;12.68;;;;;;;6.25;99.06;101210.53;5072880;28;20108;-66
2022/11/28 01:32:47;;;;;;;20.75;11.65;;;;;;;6.28;98.77;101208.19;5072132;28;20020;-70
2022/11/28 01:35:12;;;;;;;17.77;11.90;;;;;;;6.24;98.92;101207.88;5072392;28;20036;-70
2022/11/28 01:37:38;;;;;;;22.70;13.20;;;;;;;6.28;99.23;101212.41;5071934;28;20052;-65
2022/11/28 01:40:04;;;;;;;18.40;12.07;;;;;;;6.28;98.91;101209.84;5072578;28;20064;-69
2022/11/28 01:42:29;;;;;;;19.50;12.18;;;;;;;6.24;98.17;101211.34;5072503;28;20034;-66
2022/11/28 01:45:29;;;;;;;20.35;12.48;;;;;;;6.16;98.62;101215.06;5072043;28;20471;-65
2022/11/28 01:47:59;;;;;;;16.45;11.38;;;;;;;6.17;98.17;101206.59;5026702;28;20034;-65
2022/11/28 01:50:26;;;;;;;20.17;13.00;;;;;;;6.12;98.46;101213.97;5029708;28;20111;-65
2022/11/28 01:52:56;;;;;;;20.55;12.45;;;;;;;6.11;98.56;101208.75;5029567;28;20044;-69
2022/11/28 01:55:25;;;;;;;28.27;13.95;;;;;;;5.94;98.58;101164.91;5029434;28;20058;-69
2022/11/28 01:57:54;;;;;;;21.23;11.52;;;;;;;6.15;98.94;101206.47;5029325;28;20108;-69
2022/11/28 02:00:21;;;;;;;18.98;11.95;;;;;;;6.08;98.83;101206.88;5029449;28;20487;-69
2022/11/28 02:02:49;;;;;;;19.30;12.05;;;;;;;6.08;99.40;101195.69;5029466;28;20399;-69
2022/11/28 02:05:16;;;;;;;17.73;11.05;;;;;;;6.07;99.35;101196.47;5029204;28;20038;-67
2022/11/28 02:07:43;;;;;;;21.02;11.65;;;;;;;6.11;99.58;101190.78;5012802;28;20500;-70
2022/11/28 02:10:14;;;;;;;21.23;12.23;;;;;;;6.04;99.66;101191.16;5028831;28;20107;-65
2022/11/28 02:12:51;;;;;;;18.75;11.43;;;;;;;6.08;99.72;101191.47;5029295;28;20454;-69
2022/11/28 02:15:42;;;;;;;19.80;11.25;;;;;;;5.98;100.00;101192.53;5029274;28;20086;-66
2022/11/28 02:18:44;;;;;;;17.85;10.88;;;;;;;5.89;100.00;101188.44;5029362;28;20454;-65
2022/11/28 02:21:30;;;;;;;22.73;12.10;;;;;;;5.84;100.00;101188.13;5029356;28;20103;-69
2022/11/28 02:24:34;;;;;;;18.90;12.70;;;;;;;5.82;100.00;101189.72;5057855;28;20064;-65
2022/11/28 02:27:12;;;;;;;21.42;11.65;;;;;;;5.79;100.00;101190.34;5021424;28;20104;-69
2022/11/28 02:29:57;;;;;;;18.63;11.63;;;;;;;5.69;100.00;101179.41;5029116;28;20026;-69
2022/11/28 02:32:31;;;;;;;19.70;10.98;;;;;;;5.68;100.00;101170.81;5028714;28;20045;-67
2022/11/28 02:35:13;;;;;;;21.73;12.35;;;;;;;5.64;100.00;101169.69;5028871;28;20168;-65
2022/11/28 02:37:50;;;;;;;19.48;10.73;;;;;;;5.41;100.00;101133.94;5028737;28;20060;-65
2022/11/28 02:40:35;;;;;;;19.88;11.60;;;;;;;5.68;100.00;101175.94;5028790;28;20029;-69
2022/11/28 02:43:00;;;;;;;16.95;10.93;;;;;;;5.70;100.00;101179.50;5028527;28;20115;-69
2022/11/28 02:45:38;;;;;;;21.17;12.00;;;;;;;5.45;100.00;101134.28;5028491;28;20499;-69
2022/11/28 02:48:09;;;;;;;18.60;10.90;;;;;;;5.65;100.00;101165.50;5028443;28;20029;-69
2022/11/28 02:50:51;;;;;;;19.90;11.57;;;;;;;5.78;100.00;101180.00;5028702;28;20042;-72
2022/11/28 02:53:21;;;;;;;21.55;12.40;;;;;;;5.66;100.00;101152.78;5028548;28;20030;-65
2022/11/28 02:55:48;;;;;;;;;;;;;;;5.73;100.00;101179.72;5028660;28;20084;-65
2022/11/28 02:58:13;;;;;;;19.75;12.05;;;;;;;5.43;100.00;101137.53;5028168;28;19923;-68
2022/11/28 03:00:42;;;;;;;20.65;11.98;;;;;;;5.68;100.00;101173.38;5028607;28;20109;-69
2022/11/28 03:03:32;;;;;;;20.67;11.73;;;;;;;5.74;100.00;101173.78;5037772;28;20040;-69
2022/11/28 03:06:04;;;;;;;21.08;12.88;;;;;;;5.74;100.00;101178.03;5070847;28;20020;-69
2022/11/28 03:08:51;;;;;;;20.35;13.02;;;;;;;5.77;100.00;101174.00;5069804;28;20032;-68
2022/11/28 03:11:40;;;;;;;19.98;11.95;;;;;;;5.79;100.00;101185.22;5079027;28;20394;-66
2022/11/28 03:14:27;;;;;;;19.83;11.65;;;;;;;5.54;100.00;101135.69;5071527;28;20380;-69
2022/11/28 03:17:25;;;;;;;19.65;11.90;;;;;;;5.80;100.00;101178.44;5070521;28;20043;-71
2022/11/28 03:20:19;;;;;;;21.85;12.02;;;;;;;5.81;100.00;101182.78;5070613;28;20116;-67
2022/11/28 03:22:53;;;;;;;23.52;13.07;;;;;;;5.85;100.00;101184.78;5069967;28;20024;-69
2022/11/28 03:25:27;;;;;;;19.75;12.18;;;;;;;5.78;100.00;101180.00;5070219;28;20094;-65
2022/11/28 03:28:10;;;;;;;20.30;12.77;;;;;;;5.77;100.00;101189.38;5070396;28;20545;-66
2022/11/28 03:30:44;;;;;;;23.70;13.20;;;;;;;5.72;100.00;101171.91;5070017;28;20021;-69
2022/11/28 03:33:13;;;;;;;20.70;13.13;;;;;;;5.88;100.00;101194.34;5070037;28;20028;-66
2022/11/28 03:35:46;;;;;;;22.58;13.80;;;;;;;5.76;100.00;101168.78;5069938;28;20020;-70
2022/11/28 03:38:20;;;;;;;21.48;11.57;;;;;;;5.76;100.00;101187.59;5069684;28;20036;-65
2022/11/28 03:40:49;;;;;;;21.92;13.38;;;;;;;5.70;100.00;101184.63;5070046;28;20036;-66
2022/11/28 03:43:21;;;;;;;21.58;14.07;;;;;;;5.59;100.00;101181.31;5070615;28;20040;-65
2022/11/28 03:45:52;;;;;;;21.63;14.85;;;;;;;5.56;100.00;101172.53;5069968;28;20031;-64
2022/11/28 03:48:23;;;;;;;21.77;14.27;;;;;;;5.69;100.00;101185.41;5083348;28;20036;-67
2022/11/28 03:51:07;;;;;;;25.73;14.30;;;;;;;5.49;100.00;101138.81;5058286;28;20023;-66
2022/11/28 03:54:09;;;;;;;23.98;13.35;;;;;;;5.78;100.00;101191.16;5075406;28;20024;-64
2022/11/28 03:56:47;;;;;;;23.10;12.98;;;;;;;5.86;100.00;101185.66;5084005;28;20081;-68
2022/11/28 03:59:20;;;;;;;20.63;12.05;;;;;;;5.95;100.00;101178.59;5070296;28;20029;-68
2022/11/28 04:02:19;;;;;;;22.33;13.23;;;;;;;6.10;100.00;101194.13;5069697;28;20036;-68
2022/11/28 04:04:50;;;;;;;20.58;13.73;;;;;;;6.19;100.00;101196.44;5069842;28;20043;-68
2022/11/28 04:07:41;;;;;;;18.58;12.52;;;;;;;6.20;100.00;101199.09;5069756;28;20068;-68
2022/11/28 04:10:26;;;;;;;22.17;13.35;;;;;;;6.13;100.00;101196.91;5069963;28;20029;-68
2022/11/28 04:12:55;;;;;;;20.88;13.70;;;;;;;6.12;100.00;101190.88;5069784;28;20020;-68
2022/11/28 04:15:35;;;;;;;20.15;12.68;;;;;;;6.03;100.00;101195.41;5069755;28;20029;-65
2022/11/28 04:18:37;;;;;;;23.33;12.73;;;;;;;5.91;100.00;101198.00;5069893;28;20032;-72
2022/11/28 04:21:11;;;;;;;21.05;12.02;;;;;;;5.77;100.00;101181.69;5026461;28;20519;-70
2022/11/28 04:23:39;;;;;;;22.55;13.88;;;;;;;5.84;100.00;101195.81;5026832;28;20629;-70
2022/11/28 04:26:12;;;;;;;21.65;13.25;;;;;;;5.69;100.00;101181.97;5026717;28;20026;-68
2022/11/28 04:28:39;;;;;;;24.05;12.93;;;;;;;5.82;100.00;101205.94;5027182;28;20475;-70
2022/11/28 04:31:07;;;;;;;23.02;13.15;;;;;;;5.86;100.00;101203.59;5026736;28;20025;-70
2022/11/28 04:33:38;;;;;;;22.88;13.18;;;;;;;5.85;100.00;101199.28;5027179;28;20041;-73
2022/11/28 04:36:05;;;;;;;22.00;13.43;;;;;;;5.83;100.00;101201.69;5025982;28;20037;-69
2022/11/28 04:38:33;;;;;;;23.88;13.45;;;;;;;5.77;100.00;101186.81;5010221;28;20868;-71
2022/11/28 04:41:11;;;;;;;22.88;12.95;;;;;;;5.62;100.00;101162.69;5026674;28;20021;-68
2022/11/28 04:43:51;;;;;;;21.27;12.60;;;;;;;5.72;100.00;101175.38;5026831;28;20080;-70
2022/11/28 04:46:23;;;;;;;21.08;13.23;;;;;;;5.81;100.00;101198.16;5026285;28;20274;-71
2022/11/28 04:48:49;;;;;;;21.33;12.25;;;;;;;5.87;100.00;101203.72;5028257;28;20036;-67
2022/11/28 04:51:20;;;;;;;21.55;12.00;;;;;;;5.87;100.00;101202.81;5030322;28;20033;-68
2022/11/28 04:53:58;;;;;;;18.92;12.65;;;;;;;5.87;100.00;101213.06;5030240;28;20021;-66
2022/11/28 04:56:30;;;;;;;20.73;12.13;;;;;;;5.66;100.00;101192.88;5092996;28;20024;-68
2022/11/28 04:58:57;;;;;;;20.40;12.68;;;;;;;5.75;100.00;101215.69;5092689;28;20040;-71
2022/11/28 05:01:28;;;;;;;19.55;11.68;;;;;;;5.72;100.00;101218.03;5092507;28;20532;-71
2022/11/28 05:03:54;;;;;;;20.33;11.88;;;;;;;5.69;100.00;101210.13;5092327;28;20482;-67
2022/11/28 05:06:25;;;;;;;21.15;13.52;;;;;;;5.69;100.00;101215.25;5090844;28;20020;-69
2022/11/28 05:08:50;;;;;;;20.25;12.23;;;;;;;5.73;100.00;101224.94;5088597;28;20066;-70
2022/11/28 05:11:16;;;;;;;18.05;12.32;;;;;;;5.65;100.00;101196.22;5092446;28;20161;-65
2022/11/28 05:13:41;;;;;;;20.33;11.48;;;;;;;5.65;100.00;101209.03;5092391;28;20036;-66
2022/11/28 05:16:09;;;;;;;19.98;11.98;;;;;;;5.63;100.00;101192.66;5090596;28;20032;-71
2022/11/28 05:18:35;;;;;;;21.33;13.35;;;;;;;5.66;100.00;101210.81;5093027;28;20469;-71
2022/11/28 05:21:00;;;;;;;20.55;12.57;;;;;;;5.64;100.00;101200.44;5093158;28;20046;-73
2022/11/28 05:23:26;;;;;;;21.85;13.00;;;;;;;5.65;100.00;101197.09;5093048;28;20033;-66
2022/11/28 05:25:51;;;;;;;24.73;13.20;;;;;;;5.71;100.00;101206.00;5093019;28;20082;-69
2022/11/28 05:28:16;;;;;;;19.85;12.15;;;;;;;5.70;100.00;101210.25;5075248;28;20034;-69
2022/11/28 05:30:42;;;;;;;21.20;12.30;;;;;;;5.76;100.00;101220.03;5093243;28;20533;-67
2022/11/28 05:33:07;;;;;;;21.63;13.00;;;;;;;5.82;100.00;101221.31;5093207;28;20038;-70
2022/11/28 05:35:33;;;;;;;22.45;12.50;;;;;;;5.85;100.00;101210.41;5093212;28;20028;-69
2022/11/28 05:37:58;;;;;;;21.25;11.77;;;;;;;5.82;100.00;101218.75;5093081;28;20107;-73
2022/11/28 05:40:23;;;;;;;21.67;12.05;;;;;;;5.76;100.00;101214.91;5093090;28;20028;-69
2022/11/28 05:42:49;;;;;;;19.88;12.38;;;;;;;5.69;100.00;101200.78;5075169;28;20398;-70
2022/11/28 05:45:14;;;;;;;20.52;12.13;;;;;;;5.85;100.00;101220.66;5093156;28;20028;-69
2022/11/28 05:47:40;;;;;;;20.67;12.70;;;;;;;5.82;100.00;101231.56;5085380;28;20490;-66
2022/11/28 05:50:06;;;;;;;21.00;11.07;;;;;;;5.75;100.00;101216.56;5090773;28;20024;-65
2022/11/28 05:52:32;;;;;;;21.38;12.85;;;;;;;5.64;100.00;101192.75;5092691;28;20072;-70
2022/11/28 05:54:59;;;;;;;23.17;12.30;;;;;;;5.90;100.00;101237.22;5092635;28;20079;-70
2022/11/28 05:57:24;;;;;;;22.25;12.50;;;;;;;5.84;100.00;101226.56;5092876;28;20035;-73
2022/11/28 05:59:50;;;;;;;20.67;12.38;;;;;;;5.56;100.00;101175.09;5091517;28;20035;-66
2022/11/28 06:02:15;;;;;;;21.13;12.77;;;;;;;5.79;100.00;101220.22;5092731;28;20085;-66
2022/11/28 06:04:41;;;;;;;21.40;12.93;;;;;;;5.73;100.00;101205.34;5092735;28;20036;-69
2022/11/28 06:07:07;;;;;;;20.50;12.43;;;;;;;5.74;100.00;101208.78;5092401;28;20039;-66
2022/11/28 06:09:32;;;;;;;22.48;11.73;;;;;;;5.72;100.00;101218.03;5092282;28;20050;-72
2022/11/28 06:11:58;;;;;;;19.15;12.35;;;;;;;5.44;100.00;101170.03;5092255;28;20482;-72
2022/11/28 06:14:23;;;;;;;19.63;12.23;;;;;;;5.57;100.00;101211.09;5091006;28;20055;-72
2022/11/28 06:16:49;;;;;;;21.30;12.25;;;;;;;5.07;100.00;101139.31;5078843;28;20071;-74
2022/11/28 06:19:14;;;;;;;22.83;12.20;;;;;;;5.45;100.00;101210.22;5073857;28;20141;-74
2022/11/28 06:21:39;;;;;;;24.02;12.23;;;;;;;5.17;100.00;101177.56;5085315;28;20081;-71
2022/11/28 06:24:05;;;;;;;23.77;13.20;;;;;;;5.45;100.00;101213.66;5072390;28;20481;-71
2022/11/28 06:26:31;;;;;;;19.58;12.50;;;;;;;5.40;100.00;101203.91;5090597;28;20059;-69
2022/11/28 06:28:57;;;;;;;20.35;12.55;;;;;;;5.44;100.00;101203.31;5091100;28;20523;-70
2022/11/28 06:31:26;;;;;;;20.60;13.65;;;;;;;5.62;100.00;101222.53;5091091;28;20453;-69
2022/11/28 06:33:52;;;;;;;20.88;11.68;;;;;;;5.68;100.00;101229.72;5090824;28;20505;-69
2022/11/28 06:36:19;;;;;;;19.90;12.05;;;;;;;5.69;100.00;101216.13;5091502;28;20028;-70
2022/11/28 06:38:45;;;;;;;23.02;13.05;;;;;;;5.76;100.00;101214.91;5091130;28;20031;-69
2022/11/28 06:41:13;;;;;;;24.77;11.68;;;;;;;5.83;100.00;101219.63;5090701;28;20024;-66
2022/11/28 06:43:39;;;;;;;24.97;12.23;;;;;;;5.81;100.00;101211.84;5091073;28;20040;-69
2022/11/28 06:46:10;;;;;;;18.98;12.07;;;;;;;5.81;100.00;101216.97;5090604;28;20028;-66
2022/11/28 06:48:35;;;;;;;17.65;11.80;;;;;;;5.74;100.00;101207.09;5090552;28;20116;-69
2022/11/28 06:51:04;;;;;;;22.23;12.75;;;;;;;5.71;100.00;101216.25;5090387;28;20103;-68
2022/11/28 06:53:29;;;;;;;19.13;13.23;;;;;;;5.39;100.00;101156.03;5090518;28;20081;-69
2022/11/28 06:55:55;;;;;;;26.83;14.75;;;;;;;5.69;100.00;101203.34;5090720;28;20077;-69
2022/11/28 06:58:20;;;;;;;21.55;14.35;;;;;;;5.62;100.00;101181.53;5090444;28;20036;-68
2022/11/28 07:00:46;;;;;;;22.52;14.38;;;;;;;5.74;100.00;101191.72;5090607;28;20081;-70
2022/11/28 07:03:12;;;;;;;22.75;13.23;;;;;;;5.84;100.00;101203.47;5090353;28;20501;-71
2022/11/28 07:05:37;;;;;;;22.65;13.45;;;;;;;5.81;100.00;101180.22;5090464;28;20170;-71
2022/11/28 07:08:03;;;;;;;25.05;14.07;;;;;;;5.61;100.00;101127.66;5068852;28;20542;-71
2022/11/28 07:10:29;;;;;;;20.73;12.10;;;;;;;5.73;100.00;101156.66;5072264;28;20029;-66
2022/11/28 07:12:56;;;;;;;19.67;11.48;;;;;;;5.83;100.00;101186.31;5074948;28;20024;-71
2022/11/28 07:15:23;;;;;;;19.58;12.40;;;;;;;5.80;100.00;101191.25;5090129;28;20020;-67
2022/11/28 07:17:49;;;;;;;18.73;10.35;;;;;;;5.77;100.00;101168.88;5090440;28;20047;-66
2022/11/28 07:20:14;;;;;;;22.77;11.90;;;;;;;5.85;100.00;101171.97;5090237;28;20063;-66
2022/11/28 07:22:40;;;;;;;24.42;11.30;;;;;;;5.92;100.00;101175.81;5089782;28;20066;-69
2022/11/28 07:25:06;;;;;;;21.38;11.10;;;;;;;5.62;100.00;101127.75;5090189;28;20066;-67
2022/11/28 07:27:31;;;;;;;21.85;12.30;;;;;;;5.79;100.00;101179.22;5090102;28;20023;-68
2022/11/28 07:29:57;;;;;;;21.20;12.20;;;;;;;5.77;100.00;101173.09;5089933;28;20093;-71
2022/11/28 07:32:22;;;;;;;35.67;13.73;;;;;;;5.63;100.00;101155.16;5089898;28;20032;-70
2022/11/28 07:34:48;;;;;;;22.50;11.38;;;;;;;5.77;100.00;101166.31;5091009;28;20016;-68
2022/11/28 07:37:14;;;;;;;19.60;11.27;;;;;;;5.76;100.00;101168.78;5072404;28;20020;-68
2022/11/28 07:39:41;;;;;;;16.77;10.70;;;;;;;5.66;100.00;101173.28;5069990;28;20451;-67
2022/11/28 07:42:06;;;;;;;17.45;10.55;;;;;;;5.75;100.00;101185.81;5070420;28;20402;-70
2022/11/28 07:44:32;;;;;;;17.75;10.27;;;;;;;5.78;100.00;101187.69;5070392;28;20040;-67
2022/11/28 07:46:57;;;;;;;17.50;11.02;;;;;;;5.70;100.00;101176.94;5069956;28;20024;-68
2022/11/28 07:49:23;;;;;;;15.23;9.77;;;;;;;5.56;100.00;101145.25;5078909;28;20029;-68
2022/11/28 07:51:48;;;;;;;15.93;9.15;;;;;;;5.81;100.00;101169.97;5075556;28;20158;-69
2022/11/28 07:54:13;;;;;;;14.98;9.50;;;;;;;5.55;100.00;101130.69;5070090;28;20118;-67
2022/11/28 07:56:39;;;;;;;14.90;9.20;;;;;;;5.64;100.00;101149.22;5081803;28;20471;-69
2022/11/28 07:59:06;;;;;;;14.98;9.45;;;;;;;5.89;100.00;101191.00;5087068;28;20466;-69
2022/11/28 08:01:36;;;;;;;15.20;9.93;;;;;;;5.86;100.00;101183.09;5080912;28;20025;-69
2022/11/28 08:04:05;;;;;;;12.85;8.65;;;;;;;5.85;100.00;101168.53;5070255;28;20075;-69
2022/11/28 08:06:34;;;;;;;15.20;8.98;;;;;;;5.69;100.00;101143.53;5069954;28;20051;-70
2022/11/28 08:09:00;;;;;;;15.18;9.80;;;;;;;5.92;100.00;101197.22;5070105;28;20112;-69
2022/11/28 08:11:28;;;;;;;18.20;9.82;;;;;;;5.88;100.00;101182.44;5070182;28;20060;-69
2022/11/28 08:13:54;;;;;;;14.90;8.88;;;;;;;5.83;100.00;101171.88;5070302;28;20040;-69
2022/11/28 08:16:22;;;;;;;17.27;9.90;;;;;;;5.97;100.00;101180.47;5069686;28;20017;-69
2022/11/28 08:18:48;;;;;;;14.10;9.55;;;;;;;6.12;100.00;101201.16;5088041;28;20397;-69
2022/11/28 08:21:26;;;;;;;14.55;9.23;;;;;;;6.14;100.00;101198.69;5089496;28;20042;-68
2022/11/28 08:23:54;;;;;;;14.35;8.57;;;;;;;5.90;99.17;101157.78;5091072;28;20402;-70
2022/11/28 08:26:23;;;;;;;14.07;8.50;;;;;;;5.75;99.86;101136.25;5093823;28;20107;-70
2022/11/28 08:28:50;;;;;;;13.10;8.18;;;;;;;6.03;99.98;101181.69;5093525;28;20098;-69
2022/11/28 08:31:20;;;;;;;13.77;8.35;;;;;;;5.75;99.36;101116.63;5093085;28;20032;-69
2022/11/28 08:33:47;;;;;;;13.02;8.05;;;;;;;5.57;99.83;101090.69;5093489;28;20028;-69
2022/11/28 08:36:15;;;;;;;17.63;10.05;;;;;;;5.91;100.00;101158.69;5093427;28;20028;-69
2022/11/28 08:38:42;;;;;;;21.48;12.15;;;;;;;5.87;100.00;101137.09;5093654;28;20020;-68
2022/11/28 08:41:13;;;;;;;19.45;10.93;;;;;;;5.29;100.00;101049.53;5093262;28;20039;-69
2022/11/28 08:43:39;;;;;;;16.58;10.35;;;;;;;5.80;100.00;101137.44;5093611;28;20024;-69
2022/11/28 08:46:09;;;;;;;17.23;10.90;;;;;;;5.73;100.00;101112.19;5092891;28;20024;-69
2022/11/28 08:48:36;;;;;;;15.18;10.55;;;;;;;5.86;100.00;101134.41;5092239;28;20016;-69
2022/11/28 08:51:03;;;;;;;17.17;10.50;;;;;;;5.99;100.00;101153.31;5073954;28;20383;-69
2022/11/28 08:53:28;;;;;;;19.73;11.82;;;;;;;6.09;100.00;101154.81;5093193;28;20070;-67
2022/11/28 08:55:53;;;;;;;18.50;10.95;;;;;;;5.95;100.00;101151.28;5092612;28;20047;-69
2022/11/28 08:58:19;;;;;;;16.80;10.68;;;;;;;6.05;100.00;101151.94;5092483;28;20028;-70
2022/11/28 09:00:45;;;;;;;17.08;10.73;;;;;;;6.07;99.31;101140.09;5092777;28;20028;-70
2022/11/28 09:03:15;;;;;;;19.50;10.70;;;;;;;5.70;100.00;101100.06;5092905;28;20085;-72
2022/11/28 09:05:44;;;;;;;16.08;11.25;;;;;;;6.03;100.00;101139.03;5093087;28;20028;-69
2022/11/28 09:08:09;;;;;;;18.73;12.40;;;;;;;6.04;100.00;101139.91;5092929;28;20063;-66
2022/11/28 09:10:36;;;;;;;16.65;11.50;;;;;;;6.03;100.00;101122.75;5093131;28;20051;-69
2022/11/28 09:13:02;;;;;;;18.55;11.88;;;;;;;6.10;100.00;101122.38;5092558;28;20028;-66
2022/11/28 09:15:28;;;;;;;20.17;11.40;;;;;;;6.07;100.00;101104.19;5092714;28;20380;-69
2022/11/28 09:17:53;;;;;;;18.35;11.00;;;;;;;6.23;100.00;101118.91;5092770;28;20035;-70
2022/11/28 09:20:20;;;;;;;17.63;10.55;;;;;;;6.24;100.00;101108.78;5092472;28;20498;-68
2022/11/28 09:22:46;;;;;;;17.48;11.07;;;;;;;6.15;100.00;101097.91;5092632;28;20031;-67
2022/11/28 09:25:12;;;;;;;19.02;11.75;;;;;;;6.12;100.00;101098.59;5092774;28;20031;-70
2022/11/28 09:27:38;;;;;;;18.98;11.65;;;;;;;6.12;100.00;101103.72;5092007;28;20063;-68
2022/11/28 09:30:05;;;;;;;20.38;11.20;;;;;;;6.19;100.00;101106.69;5092636;28;20086;-67
2022/11/28 09:32:30;;;;;;;17.83;11.45;;;;;;;6.10;100.00;101100.16;5092250;28;20541;-69
2022/11/28 09:34:56;;;;;;;18.52;12.60;;;;;;;6.00;100.00;101072.16;5073208;28;20123;-70
2022/11/28 09:37:21;;;;;;;22.90;17.13;;;;;;;6.25;100.00;101101.97;5092217;28;20398;-70
2022/11/28 09:39:47;;;;;;;31.63;25.42;;;;;;;6.12;100.00;101090.03;5092325;28;20437;-70
2022/11/28 09:42:33;;;;;;;20.88;13.95;;;;;;;5.94;100.00;101040.97;5073686;28;20161;-71
2022/11/28 09:45:19;;;;;;;19.92;12.32;;;;;;;6.13;100.00;101090.13;5092242;28;20099;-71
2022/11/28 09:47:49;;;;;;;18.75;11.52;;;;;;;6.05;100.00;101091.28;5090760;28;20039;-67
2022/11/28 09:50:21;;;;;;;20.75;14.45;;;;;;;6.07;100.00;101088.81;5092172;28;20024;-69
2022/11/28 09:52:58;;;;;;;17.80;12.27;;;;;;;5.96;100.00;101085.53;5074391;28;20089;-68
2022/11/28 09:55:39;;;;;;;19.15;11.70;;;;;;;5.90;100.00;101068.06;5091550;28;20082;-70
2022/11/28 09:58:13;;;;;;;22.27;12.50;;;;;;;5.96;100.00;101071.03;5091870;28;20024;-69
2022/11/28 10:00:50;;;;;;;20.40;12.90;;;;;;;6.04;100.00;101081.81;5092051;28;20031;-72
2022/11/28 10:03:15;;;;;;;22.13;15.82;;;;;;;6.04;100.00;101079.25;5091643;28;20038;-69
2022/11/28 10:06:05;;;;;;;20.05;14.70;;;;;;;6.08;100.00;101076.13;5091613;28;20024;-70
2022/11/28 10:08:49;;;;;;;22.42;15.77;;;;;;;5.98;100.00;101045.50;5091665;28;20053;-68
2022/11/28 10:11:51;;;;;;;14.80;9.98;;;;;;;6.12;100.00;101059.28;5092008;28;20066;-68
2022/11/28 10:14:58;;;;;;;13.20;9.18;;;;;;;6.16;100.00;101063.78;5090496;28;20527;-69
2022/11/28 10:17:42;;;;;;;14.07;8.98;;;;;;;6.14;100.00;101057.66;5008594;28;20456;-70
2022/11/28 10:20:17;;;;;;;14.48;8.35;;;;;;;6.07;100.00;101056.41;5009082;28;20088;-70
2022/11/28 10:22:57;;;;;;;14.85;9.30;;;;;;;6.01;100.00;101035.50;5009084;28;20137;-69
2022/11/28 10:25:29;;;;;;;14.73;9.52;;;;;;;6.07;100.00;101047.81;5009025;28;20070;-70
2022/11/28 10:27:56;;;;;;;14.55;9.65;;;;;;;6.00;100.00;101036.28;5008948;28;20041;-70
2022/11/28 10:30:28;;;;;;;14.63;9.57;;;;;;;6.12;100.00;101041.31;5008909;28;20038;-70
2022/11/28 10:33:09;;;;;;;16.67;9.57;;;;;;;6.09;100.00;101036.00;5009015;28;20104;-71
2022/11/28 10:35:49;;;;;;;11.70;7.15;;;;;;;6.08;100.00;101045.38;5007311;28;20034;-69
2022/11/28 10:38:16;;;;;;;9.25;5.82;;;;;;;6.07;100.00;101030.78;5008740;28;20100;-70
2022/11/28 10:40:59;;;;;;;7.10;4.82;;;;;;;6.03;100.00;101043.28;5008367;28;20285;-70
2022/11/28 10:43:52;;;;;;;7.32;4.13;;;;;;;6.01;100.00;101048.31;5008429;28;20508;-70
2022/11/28 10:46:21;;;;;;;5.95;3.88;;;;;;;5.77;100.00;100996.31;5008271;28;20506;-69
2022/11/28 10:49:07;;;;;;;5.28;3.38;;;;;;;6.07;100.00;101037.56;5007862;28;20618;-70
2022/11/28 10:52:03;;;;;;;5.13;3.35;;;;;;;6.06;100.00;101046.06;5007777;28;20041;-72
2022/11/28 10:54:47;;;;;;;8.35;4.40;;;;;;;5.99;100.00;101030.28;5056741;28;20060;-72
2022/11/28 10:57:26;;;;;;;7.53;4.90;;;;;;;5.98;100.00;101028.50;5090366;28;20032;-70
2022/11/28 11:00:13;;;;;;;6.97;4.78;;;;;;;5.99;100.00;101022.59;5090553;28;20024;-70
2022/11/28 11:02:44;;;;;;;7.20;4.88;;;;;;;5.97;100.00;101026.69;5090320;28;20603;-68
2022/11/28 11:05:19;;;;;;;6.75;4.03;;;;;;;5.83;100.00;101027.47;5089284;28;20048;-70
2022/11/28 11:07:50;;;;;;;7.03;3.80;;;;;;;5.79;100.00;101020.38;5089615;28;20186;-70
2022/11/28 11:10:22;;;;;;;16.92;9.82;;;;;;;5.75;100.00;101020.97;5089980;28;20163;-68
2022/11/28 11:12:49;;;;;;;6.90;5.05;;;;;;;5.81;100.00;101019.69;5090321;28;20485;-67
2022/11/28 11:15:19;;;;;;;6.55;4.10;;;;;;;5.69;100.00;101002.63;5089974;28;20028;-68
2022/11/28 11:17:45;;;;;;;6.82;5.35;;;;;;;5.65;100.00;101014.34;5088242;28;20047;-67
2022/11/28 11:20:26;;;;;;;9.60;8.60;;;;;;;5.76;100.00;101013.38;5088642;28;20032;-70
2022/11/28 11:23:00;;;;;;;10.25;8.13;;;;;;;5.77;100.00;101021.94;5087760;28;20379;-69
2022/11/28 11:25:28;;;;;;;10.02;5.53;;;;;;;5.68;100.00;101009.41;5089206;28;20114;-70
2022/11/28 11:27:56;;;;;;;11.93;8.70;;;;;;;5.76;100.00;101012.50;5088582;28;20516;-68
2022/11/28 11:30:28;;;;;;;13.75;8.77;;;;;;;5.80;100.00;101017.91;5083611;28;20044;-71
2022/11/28 11:32:59;;;;;;;8.35;5.93;;;;;;;5.77;100.00;101009.13;5087164;28;20039;-69